createdAt,value
2023-05-20T00:00:45.069Z,12.20
2023-05-20T00:03:13.114Z,12.10
2023-05-20T00:05:40.393Z,12.10
2023-05-20T00:08:09.593Z,12.00
2023-05-20T00:10:36.698Z,12.00
2023-05-20T00:13:03.706Z,12.00
2023-05-20T00:15:30.830Z,12.00
2023-05-20T00:17:57.840Z,11.90
2023-05-20T00:20:25.203Z,11.80
2023-05-20T00:22:52.045Z,11.90
2023-05-20T00:25:18.976Z,11.70
2023-05-20T00:27:47.231Z,11.70
2023-05-20T00:30:14.067Z,11.80
2023-05-20T00:32:41.073Z,11.70
2023-05-20T00:35:08.500Z,11.70
2023-05-20T00:37:35.543Z,11.70
2023-05-20T00:40:02.745Z,11.70
2023-05-20T00:42:29.593Z,11.70
2023-05-20T00:44:56.680Z,11.70
2023-05-20T00:47:26.241Z,11.70
2023-05-20T00:49:53.293Z,11.70
2023-05-20T00:52:23.448Z,11.60
2023-05-20T00:54:51.196Z,11.60
2023-05-20T00:57:19.449Z,11.50
2023-05-20T00:59:46.624Z,11.40
2023-05-20T01:02:14.288Z,11.30
2023-05-20T01:04:46.520Z,11.40
2023-05-20T01:07:15.201Z,11.40
2023-05-20T01:09:42.469Z,11.30
2023-05-20T01:12:09.326Z,11.40
2023-05-20T01:14:49.669Z,11.40
2023-05-20T01:17:18.013Z,11.30
2023-05-20T01:19:45.441Z,11.30
2023-05-20T01:22:13.226Z,11.30
2023-05-20T01:24:41.300Z,11.30
2023-05-20T01:27:10.461Z,11.30
2023-05-20T01:29:37.883Z,11.40
2023-05-20T01:32:06.446Z,11.30
2023-05-20T01:34:35.957Z,11.40
2023-05-20T01:37:04.474Z,11.40
2023-05-20T01:39:32.054Z,11.30
2023-05-20T01:41:59.134Z,11.30
2023-05-20T01:44:26.608Z,11.30
2023-05-20T01:46:54.161Z,11.30
2023-05-20T01:49:21.490Z,11.30
2023-05-20T01:51:48.382Z,11.20
2023-05-20T01:54:15.280Z,11.20
2023-05-20T01:56:42.135Z,11.10
2023-05-20T01:59:09.394Z,11.10
2023-05-20T02:01:36.362Z,11.10
2023-05-20T02:04:03.420Z,11.00
2023-05-20T02:06:30.451Z,10.90
2023-05-20T02:08:57.288Z,10.90
2023-05-20T02:11:24.188Z,10.90
2023-05-20T02:13:53.418Z,10.90
2023-05-20T02:16:20.319Z,10.90
2023-05-20T02:18:47.311Z,10.90
2023-05-20T02:21:17.379Z,10.90
2023-05-20T02:23:44.401Z,10.90
2023-05-20T02:26:11.405Z,10.90
2023-05-20T02:28:41.789Z,10.90
2023-05-20T02:31:08.584Z,10.90
2023-05-20T02:33:35.509Z,10.90
2023-05-20T02:36:02.317Z,10.90
2023-05-20T02:38:29.262Z,10.90
2023-05-20T02:40:56.742Z,10.90
2023-05-20T02:43:23.607Z,10.80
2023-05-20T02:45:50.413Z,10.80
2023-05-20T02:48:17.327Z,10.80
2023-05-20T02:50:45.442Z,10.70
2023-05-20T02:53:12.373Z,10.70
2023-05-20T02:55:39.975Z,10.70
2023-05-20T02:58:06.800Z,10.60
2023-05-20T03:00:40.815Z,10.60
2023-05-20T03:03:08.337Z,10.60
2023-05-20T03:05:37.979Z,10.60
2023-05-20T03:08:12.290Z,10.60
2023-05-20T03:10:39.661Z,10.60
2023-05-20T03:13:11.445Z,10.60
2023-05-20T03:15:39.185Z,10.60
2023-05-20T03:18:07.252Z,10.50
2023-05-20T03:20:37.819Z,10.60
2023-05-20T03:23:06.583Z,10.60
2023-05-20T03:25:33.820Z,10.70
2023-05-20T03:28:01.071Z,10.70
2023-05-20T03:30:28.218Z,10.70
2023-05-20T03:32:59.777Z,10.60
2023-05-20T03:35:26.959Z,10.60
2023-05-20T03:37:54.825Z,10.60
2023-05-20T03:40:23.982Z,10.60
2023-05-20T03:42:52.213Z,10.60
2023-05-20T03:45:21.058Z,10.60
2023-05-20T03:48:06.037Z,10.50
2023-05-20T03:50:34.728Z,10.60
2023-05-20T03:53:01.710Z,10.60
2023-05-20T03:55:35.188Z,10.60
2023-05-20T03:58:02.698Z,10.70
2023-05-20T04:00:31.874Z,10.70
2023-05-20T04:02:59.032Z,10.70
2023-05-20T04:05:26.654Z,10.60
2023-05-20T04:07:54.963Z,10.60
2023-05-20T04:10:23.674Z,10.60
2023-05-20T04:12:52.417Z,10.60
2023-05-20T04:15:20.391Z,10.60
2023-05-20T04:17:53.146Z,10.60
2023-05-20T04:20:20.079Z,10.60
2023-05-20T04:22:48.502Z,10.70
2023-05-20T04:25:15.485Z,10.70
2023-05-20T04:27:43.708Z,10.70
2023-05-20T04:30:11.314Z,10.70
2023-05-20T04:32:41.634Z,10.80
2023-05-20T04:35:11.904Z,10.80
2023-05-20T04:37:42.405Z,10.80
2023-05-20T04:40:12.536Z,10.90
2023-05-20T04:42:39.784Z,10.90
2023-05-20T04:45:08.766Z,10.90
2023-05-20T04:47:39.115Z,11.00
2023-05-20T04:50:08.767Z,11.00
2023-05-20T04:52:35.974Z,10.90
2023-05-20T04:55:03.113Z,11.00
2023-05-20T04:57:30.290Z,11.00
2023-05-20T04:59:58.903Z,11.00
2023-05-20T05:02:27.017Z,11.00
2023-05-20T05:04:54.354Z,11.10
2023-05-20T05:07:21.217Z,11.10
2023-05-20T05:09:48.964Z,11.10
2023-05-20T05:12:16.033Z,11.10
2023-05-20T05:14:43.237Z,11.10
2023-05-20T05:17:10.181Z,11.20
2023-05-20T05:19:37.048Z,11.20
2023-05-20T05:22:04.000Z,11.30
2023-05-20T05:24:31.339Z,11.30
2023-05-20T05:26:58.285Z,11.40
2023-05-20T05:29:25.217Z,11.50
2023-05-20T05:31:52.207Z,11.50
2023-05-20T05:34:19.213Z,11.50
2023-05-20T05:36:45.997Z,11.50
2023-05-20T05:39:12.844Z,11.60
2023-05-20T05:41:40.477Z,11.60
2023-05-20T05:44:08.128Z,11.60
2023-05-20T05:46:35.766Z,11.60
2023-05-20T05:49:02.751Z,11.70
2023-05-20T05:51:30.879Z,11.80
2023-05-20T05:53:58.359Z,11.80
2023-05-20T05:56:25.243Z,11.80
2023-05-20T05:58:52.424Z,11.90
2023-05-20T06:01:19.445Z,12.00
2023-05-20T06:03:46.510Z,12.10
2023-05-20T06:06:13.691Z,12.10
2023-05-20T06:08:40.673Z,12.20
2023-05-20T06:11:08.620Z,12.10
2023-05-20T06:13:35.926Z,12.20
2023-05-20T06:16:02.744Z,12.30
2023-05-20T06:18:29.625Z,12.30
2023-05-20T06:21:00.752Z,12.40
2023-05-20T06:23:27.649Z,12.50
2023-05-20T06:25:59.435Z,12.60
2023-05-20T06:28:26.736Z,12.70
2023-05-20T06:30:56.934Z,12.80
2023-05-20T06:33:26.324Z,12.90
2023-05-20T06:35:54.943Z,12.90
2023-05-20T06:38:22.066Z,12.90
2023-05-20T06:40:49.608Z,12.90
2023-05-20T06:43:16.670Z,13.00
2023-05-20T06:45:54.297Z,13.10
2023-05-20T06:48:30.264Z,13.00
2023-05-20T06:50:57.554Z,13.10
2023-05-20T06:53:24.674Z,13.10
2023-05-20T06:55:53.435Z,13.20
2023-05-20T06:58:20.675Z,13.30
2023-05-20T07:00:47.694Z,13.30
2023-05-20T07:03:15.619Z,13.30
2023-05-20T07:05:42.582Z,13.40
2023-05-20T07:08:11.424Z,13.50
2023-05-20T07:10:38.785Z,13.50
2023-05-20T07:13:05.917Z,13.70
2023-05-20T07:15:33.106Z,13.70
2023-05-20T07:18:00.331Z,13.70
2023-05-20T07:20:27.318Z,13.80
2023-05-20T07:22:55.200Z,13.80
2023-05-20T07:25:28.840Z,13.80
2023-05-20T07:27:55.843Z,13.90
2023-05-20T07:30:23.278Z,14.00
2023-05-20T07:33:06.474Z,14.10
2023-05-20T07:35:33.761Z,14.10
2023-05-20T07:38:01.263Z,14.20
2023-05-20T07:40:28.124Z,14.30
2023-05-20T07:42:55.000Z,14.40
2023-05-20T07:45:21.905Z,14.50
2023-05-20T07:47:50.158Z,14.50
2023-05-20T07:50:17.421Z,14.50
2023-05-20T07:52:56.059Z,14.60
2023-05-20T07:55:26.155Z,14.60
2023-05-20T07:57:53.414Z,14.70
2023-05-20T08:00:21.494Z,14.70
2023-05-20T08:02:48.357Z,14.80
2023-05-20T08:05:25.386Z,14.80
2023-05-20T08:07:52.505Z,14.90
2023-05-20T08:10:22.370Z,14.90
2023-05-20T08:12:49.536Z,14.90
2023-05-20T08:15:16.544Z,14.90
2023-05-20T08:17:43.573Z,15.00
2023-05-20T08:20:12.761Z,15.00
2023-05-20T08:22:39.870Z,15.10
2023-05-20T08:25:08.700Z,15.10
2023-05-20T08:27:38.681Z,15.10
2023-05-20T08:30:09.920Z,15.10
2023-05-20T08:32:37.469Z,15.30
2023-05-20T08:35:04.937Z,15.40
2023-05-20T08:37:32.052Z,15.40
2023-05-20T08:39:58.955Z,15.40
2023-05-20T08:42:26.900Z,15.40
2023-05-20T08:44:56.185Z,15.40
2023-05-20T08:47:24.552Z,15.40
2023-05-20T08:49:51.646Z,15.50
2023-05-20T08:52:21.176Z,15.60
2023-05-20T08:54:49.374Z,15.60
2023-05-20T08:57:16.545Z,15.70
2023-05-20T08:59:44.368Z,15.50
2023-05-20T09:02:11.589Z,15.60
2023-05-20T09:04:38.922Z,15.60
2023-05-20T09:07:05.961Z,15.50
2023-05-20T09:09:34.111Z,15.60
2023-05-20T09:12:01.509Z,15.60
2023-05-20T09:14:28.746Z,15.60
2023-05-20T09:16:55.744Z,15.60
2023-05-20T09:19:24.487Z,15.70
2023-05-20T09:21:54.087Z,15.70
2023-05-20T09:24:23.079Z,15.60
2023-05-20T09:26:51.266Z,15.60
2023-05-20T09:29:19.710Z,15.60
2023-05-20T09:31:46.728Z,15.60
2023-05-20T09:34:13.899Z,15.70
2023-05-20T09:36:42.333Z,15.80
2023-05-20T09:39:11.288Z,15.90
2023-05-20T09:41:58.364Z,16.00
2023-05-20T09:44:25.327Z,16.00
2023-05-20T09:46:53.323Z,16.00
2023-05-20T09:49:21.395Z,16.10
2023-05-20T09:51:48.675Z,16.20
2023-05-20T09:54:18.060Z,16.20
2023-05-20T09:56:45.300Z,16.20
2023-05-20T09:59:13.880Z,16.20
2023-05-20T10:01:40.776Z,16.20
2023-05-20T10:04:08.615Z,16.20
2023-05-20T10:06:48.479Z,16.20
2023-05-20T10:09:24.998Z,16.10
2023-05-20T10:12:12.220Z,16.10
2023-05-20T10:14:40.771Z,16.20
2023-05-20T10:17:27.794Z,16.10
2023-05-20T10:19:58.368Z,16.20
2023-05-20T10:22:29.130Z,16.30
2023-05-20T10:25:00.325Z,16.30
2023-05-20T10:27:27.393Z,16.30
2023-05-20T10:29:56.100Z,16.40
2023-05-20T10:32:27.323Z,16.40
2023-05-20T10:35:01.114Z,16.40
2023-05-20T10:37:29.325Z,16.30
2023-05-20T10:40:05.550Z,16.30
2023-05-20T10:42:32.480Z,16.30
2023-05-20T10:44:59.442Z,16.30
2023-05-20T10:47:26.830Z,16.30
2023-05-20T10:49:53.767Z,16.40
2023-05-20T10:52:20.772Z,16.50
2023-05-20T10:54:50.951Z,16.50
2023-05-20T10:57:18.732Z,16.40
2023-05-20T10:59:45.627Z,16.50
2023-05-20T11:02:13.441Z,16.50
2023-05-20T11:04:43.169Z,16.60
2023-05-20T11:07:10.340Z,16.60
2023-05-20T11:09:37.339Z,16.60
2023-05-20T11:12:04.335Z,16.50
2023-05-20T11:14:32.275Z,16.40
2023-05-20T11:16:59.800Z,16.50
2023-05-20T11:19:27.341Z,16.40
2023-05-20T11:21:54.650Z,16.40
2023-05-20T11:24:26.485Z,16.40
2023-05-20T11:26:54.315Z,16.40
2023-05-20T11:29:23.561Z,16.40
2023-05-20T11:31:53.424Z,16.40
2023-05-20T11:34:26.430Z,16.30
2023-05-20T11:36:57.895Z,16.30
2023-05-20T11:39:25.040Z,16.20
2023-05-20T11:41:52.058Z,16.30
2023-05-20T11:44:20.004Z,16.30
2023-05-20T11:46:47.634Z,16.30
2023-05-20T11:49:15.062Z,16.40
2023-05-20T11:51:43.283Z,16.40
2023-05-20T11:54:10.731Z,16.30
2023-05-20T11:56:38.567Z,16.40
2023-05-20T11:59:06.099Z,16.40
2023-05-20T12:01:43.333Z,16.40
2023-05-20T12:04:10.696Z,16.40
2023-05-20T12:06:38.079Z,16.50
2023-05-20T12:09:08.966Z,16.50
2023-05-20T12:11:36.864Z,16.50
2023-05-20T12:14:04.335Z,16.60
2023-05-20T12:16:31.949Z,16.50
2023-05-20T12:19:00.131Z,16.50
2023-05-20T12:21:28.026Z,16.50
2023-05-20T12:23:58.165Z,16.50
2023-05-20T12:26:25.985Z,16.40
2023-05-20T12:28:53.324Z,16.40
2023-05-20T12:31:20.322Z,16.40
2023-05-20T12:33:47.283Z,16.20
2023-05-20T12:36:14.645Z,16.20
2023-05-20T12:38:41.415Z,16.30
2023-05-20T12:41:08.379Z,16.30
2023-05-20T12:43:38.288Z,16.40
2023-05-20T12:46:05.864Z,16.30
2023-05-20T12:48:32.947Z,16.20
2023-05-20T12:51:00.263Z,16.20
2023-05-20T12:53:27.113Z,16.20
2023-05-20T12:55:54.011Z,16.20
2023-05-20T12:58:20.829Z,16.20
2023-05-20T13:00:47.808Z,16.20
2023-05-20T13:03:15.020Z,16.30
2023-05-20T13:05:42.059Z,16.30
2023-05-20T13:08:10.204Z,16.20
2023-05-20T13:10:37.819Z,16.20
2023-05-20T13:13:05.099Z,16.20
2023-05-20T13:15:35.581Z,16.20
2023-05-20T13:18:03.635Z,16.30
2023-05-20T13:20:31.065Z,16.30
2023-05-20T13:22:58.158Z,16.40
2023-05-20T13:25:25.073Z,16.40
2023-05-20T13:27:51.989Z,16.50
2023-05-20T13:30:18.829Z,16.30
2023-05-20T13:32:46.292Z,16.30
2023-05-20T13:35:14.735Z,16.30
2023-05-20T13:37:41.657Z,16.20
2023-05-20T13:40:09.231Z,16.30
2023-05-20T13:42:36.140Z,16.30
2023-05-20T13:45:03.108Z,16.40
2023-05-20T13:47:30.118Z,16.50
2023-05-20T13:49:57.156Z,16.40
2023-05-20T13:52:24.029Z,16.30
2023-05-20T13:54:51.555Z,16.30
2023-05-20T13:57:18.557Z,16.30
2023-05-20T13:59:45.444Z,16.30
2023-05-20T14:02:12.434Z,16.30
2023-05-20T14:04:40.034Z,16.30
2023-05-20T14:07:09.608Z,16.40
2023-05-20T14:09:36.925Z,16.40
2023-05-20T14:12:04.342Z,16.40
2023-05-20T14:14:31.401Z,16.50
2023-05-20T14:16:59.328Z,16.50
2023-05-20T14:19:29.141Z,16.40
2023-05-20T14:21:56.238Z,16.40
2023-05-20T14:24:23.875Z,16.40
2023-05-20T14:26:50.894Z,16.40
2023-05-20T14:29:17.864Z,16.50
2023-05-20T14:31:45.136Z,16.40
2023-05-20T14:34:12.081Z,16.30
2023-05-20T14:36:39.455Z,16.40
2023-05-20T14:39:06.559Z,16.40
2023-05-20T14:41:33.475Z,16.40
2023-05-20T14:44:00.664Z,16.40
2023-05-20T14:46:27.599Z,16.40
2023-05-20T14:48:54.539Z,16.40
2023-05-20T14:51:21.408Z,16.50
2023-05-20T14:53:48.320Z,16.40
2023-05-20T14:56:15.171Z,16.40
2023-05-20T14:58:42.063Z,16.50
2023-05-20T15:01:09.328Z,16.50
2023-05-20T15:03:36.706Z,16.50
2023-05-20T15:06:03.936Z,16.40
2023-05-20T15:08:31.439Z,16.50
2023-05-20T15:10:58.422Z,16.40
2023-05-20T15:13:25.394Z,16.50
2023-05-20T15:15:53.071Z,16.50
2023-05-20T15:18:19.924Z,16.50
2023-05-20T15:20:46.925Z,16.40
2023-05-20T15:23:13.845Z,16.40
2023-05-20T15:25:40.695Z,16.30
2023-05-20T15:28:07.600Z,16.40
2023-05-20T15:30:34.644Z,16.50
2023-05-20T15:33:01.824Z,16.50
2023-05-20T15:35:29.804Z,16.40
2023-05-20T15:37:56.722Z,16.30
2023-05-20T15:40:23.643Z,16.30
2023-05-20T15:42:51.465Z,16.20
2023-05-20T15:45:18.639Z,16.20
2023-05-20T15:47:45.658Z,16.30
2023-05-20T15:50:12.697Z,16.30
2023-05-20T15:52:39.708Z,16.40
2023-05-20T15:55:07.027Z,16.40
2023-05-20T15:57:34.007Z,16.30
2023-05-20T16:00:01.480Z,16.30
2023-05-20T16:02:28.786Z,16.20
2023-05-20T16:04:55.891Z,16.20
2023-05-20T16:07:22.718Z,16.20
2023-05-20T16:09:49.549Z,16.10
2023-05-20T16:12:17.087Z,16.10
2023-05-20T16:14:44.985Z,16.00
2023-05-20T16:17:12.198Z,16.00
2023-05-20T16:19:39.120Z,16.00
2023-05-20T16:22:06.141Z,16.00
2023-05-20T16:24:32.990Z,16.10
2023-05-20T16:26:59.932Z,16.20
2023-05-20T16:29:27.114Z,16.30
2023-05-20T16:31:54.015Z,16.20
2023-05-20T16:34:21.101Z,16.20
2023-05-20T16:36:48.006Z,16.20
2023-05-20T16:39:15.472Z,16.20
2023-05-20T16:41:42.440Z,16.10
2023-05-20T16:44:09.666Z,16.20
2023-05-20T16:46:36.641Z,16.20
2023-05-20T16:49:03.488Z,16.20
2023-05-20T16:51:31.116Z,16.30
2023-05-20T16:53:57.998Z,16.20
2023-05-20T16:56:24.860Z,16.20
2023-05-20T16:58:53.146Z,16.10
2023-05-20T17:01:21.484Z,16.20
2023-05-20T17:03:48.715Z,16.20
2023-05-20T17:06:15.669Z,16.20
2023-05-20T17:08:42.585Z,16.20
2023-05-20T17:11:09.472Z,16.20
2023-05-20T17:13:36.323Z,16.10
2023-05-20T17:16:03.196Z,16.10
2023-05-20T17:18:30.014Z,16.10
2023-05-20T17:20:56.882Z,16.10
2023-05-20T17:23:23.742Z,16.10
2023-05-20T17:25:50.988Z,16.20
2023-05-20T17:28:17.991Z,16.20
2023-05-20T17:30:44.877Z,16.20
2023-05-20T17:33:11.870Z,16.10
2023-05-20T17:35:38.801Z,16.10
2023-05-20T17:38:05.707Z,16.20
2023-05-20T17:40:32.598Z,16.20
2023-05-20T17:43:00.044Z,16.20
2023-05-20T17:45:26.943Z,16.20
2023-05-20T17:47:53.856Z,16.10
2023-05-20T17:50:20.672Z,16.10
2023-05-20T17:52:47.474Z,16.00
2023-05-20T17:55:14.676Z,16.00
2023-05-20T17:57:41.588Z,16.00
2023-05-20T18:00:09.451Z,16.00
2023-05-20T18:02:38.401Z,16.00
2023-05-20T18:05:06.340Z,16.00
2023-05-20T18:07:33.462Z,16.00
2023-05-20T18:10:00.425Z,16.00
2023-05-20T18:12:27.422Z,16.00
2023-05-20T18:14:54.592Z,16.00
2023-05-20T18:17:21.643Z,16.00
2023-05-20T18:19:49.565Z,16.00
2023-05-20T18:22:16.370Z,16.00
2023-05-20T18:24:43.229Z,16.00
2023-05-20T18:27:10.081Z,16.00
2023-05-20T18:29:36.941Z,16.00
2023-05-20T18:32:04.097Z,16.00
2023-05-20T18:34:33.183Z,16.00
2023-05-20T18:37:00.707Z,16.00
2023-05-20T18:39:27.626Z,16.00
2023-05-20T18:41:54.423Z,16.00
2023-05-20T18:44:21.385Z,15.90
2023-05-20T18:46:48.304Z,15.90
2023-05-20T18:49:15.119Z,15.90
2023-05-20T18:51:41.980Z,15.90
2023-05-20T18:54:08.897Z,15.90
2023-05-20T18:56:35.913Z,15.90
2023-05-20T18:59:02.838Z,15.80
2023-05-20T19:01:29.851Z,15.80
2023-05-20T19:03:56.822Z,15.80
2023-05-20T19:06:23.643Z,15.80
2023-05-20T19:08:50.869Z,15.70
2023-05-20T19:11:17.956Z,15.70
2023-05-20T19:13:44.803Z,15.70
2023-05-20T19:16:11.798Z,15.70
2023-05-20T19:18:38.790Z,15.70
2023-05-20T19:21:05.875Z,15.80
2023-05-20T19:23:32.726Z,15.80
2023-05-20T19:25:59.612Z,15.80
2023-05-20T19:28:26.677Z,15.70
2023-05-20T19:30:53.693Z,15.70
2023-05-20T19:33:20.676Z,15.80
2023-05-20T19:35:47.574Z,15.70
2023-05-20T19:38:14.425Z,15.60
2023-05-20T19:40:43.607Z,15.60
2023-05-20T19:43:10.684Z,15.50
2023-05-20T19:45:37.774Z,15.40
2023-05-20T19:48:05.482Z,15.40
2023-05-20T19:50:33.099Z,15.40
2023-05-20T19:53:00.343Z,15.40
2023-05-20T19:55:27.283Z,15.40
2023-05-20T19:57:54.199Z,15.30
2023-05-20T20:00:21.474Z,15.30
2023-05-20T20:02:48.839Z,15.30
2023-05-20T20:05:15.986Z,15.30
2023-05-20T20:07:42.899Z,15.30
2023-05-20T20:10:10.510Z,15.20
2023-05-20T20:12:37.435Z,15.30
2023-05-20T20:15:04.414Z,15.20
2023-05-20T20:17:33.715Z,15.20
2023-05-20T20:20:00.984Z,15.10
2023-05-20T20:22:31.203Z,15.10
2023-05-20T20:24:58.589Z,15.10
2023-05-20T20:27:25.434Z,14.90
2023-05-20T20:29:52.731Z,14.80
2023-05-20T20:32:19.593Z,14.80
2023-05-20T20:34:46.469Z,14.70
2023-05-20T20:37:15.118Z,14.70
2023-05-20T20:39:42.881Z,14.80
2023-05-20T20:42:09.850Z,14.80
2023-05-20T20:44:36.843Z,14.70
2023-05-20T20:47:04.520Z,14.60
2023-05-20T20:49:32.270Z,14.50
2023-05-20T20:51:59.397Z,14.60
2023-05-20T20:54:26.578Z,14.60
2023-05-20T20:56:56.692Z,14.60
2023-05-20T20:59:26.508Z,14.60
2023-05-20T21:01:53.873Z,14.60
2023-05-20T21:04:21.112Z,14.60
2023-05-20T21:06:48.131Z,14.50
2023-05-20T21:09:15.062Z,14.50
2023-05-20T21:11:42.300Z,14.40
2023-05-20T21:14:09.765Z,14.50
2023-05-20T21:16:36.694Z,14.40
2023-05-20T21:19:04.002Z,14.50
2023-05-20T21:21:31.777Z,14.40
2023-05-20T21:23:58.731Z,14.40
2023-05-20T21:26:25.667Z,14.40
2023-05-20T21:28:52.840Z,14.40
2023-05-20T21:31:20.075Z,14.40
2023-05-20T21:33:47.206Z,14.30
2023-05-20T21:36:14.238Z,14.30
2023-05-20T21:38:41.120Z,14.30
2023-05-20T21:41:08.106Z,14.30
2023-05-20T21:43:36.018Z,14.20
2023-05-20T21:46:03.124Z,14.20
2023-05-20T21:48:30.028Z,14.20
2023-05-20T21:50:56.868Z,14.20
2023-05-20T21:53:23.761Z,14.10
2023-05-20T21:55:50.906Z,14.10
2023-05-20T21:58:17.751Z,14.10
2023-05-20T22:00:45.101Z,14.10
2023-05-20T22:03:13.250Z,14.00
2023-05-20T22:05:40.955Z,14.00
2023-05-20T22:08:08.023Z,14.00
2023-05-20T22:10:36.562Z,13.90
2023-05-20T22:13:03.498Z,13.80
2023-05-20T22:15:31.245Z,13.80
2023-05-20T22:17:58.848Z,13.80
2023-05-20T22:20:25.879Z,13.80
2023-05-20T22:22:52.841Z,13.80
2023-05-20T22:25:19.803Z,13.80
2023-05-20T22:27:47.101Z,13.90
2023-05-20T22:30:14.173Z,13.80
2023-05-20T22:32:41.333Z,13.80
2023-05-20T22:35:08.549Z,13.80
2023-05-20T22:37:35.543Z,13.80
2023-05-20T22:40:02.535Z,13.80
2023-05-20T22:42:29.394Z,13.80
2023-05-20T22:44:56.292Z,13.80
2023-05-20T22:47:23.150Z,13.70
2023-05-20T22:49:50.858Z,13.70
2023-05-20T22:52:18.738Z,13.70
2023-05-20T22:54:45.658Z,13.60
2023-05-20T22:57:12.728Z,13.60
2023-05-20T22:59:40.439Z,13.60
2023-05-20T23:02:08.215Z,13.60
2023-05-20T23:04:35.207Z,13.60
2023-05-20T23:07:02.207Z,13.60
2023-05-20T23:09:29.098Z,13.60
2023-05-20T23:11:55.984Z,13.60
2023-05-20T23:14:24.038Z,13.50
2023-05-20T23:16:51.031Z,13.50
2023-05-20T23:19:18.032Z,13.50
2023-05-20T23:21:44.864Z,13.50
2023-05-20T23:24:11.995Z,13.40
2023-05-20T23:26:39.645Z,13.20
2023-05-20T23:29:06.674Z,13.30
2023-05-20T23:31:33.794Z,13.20
2023-05-20T23:34:01.660Z,13.20
2023-05-20T23:36:34.451Z,13.20
2023-05-20T23:39:02.068Z,13.20
2023-05-20T23:41:28.981Z,13.30
2023-05-20T23:43:55.974Z,13.30
2023-05-20T23:46:22.940Z,13.20
2023-05-20T23:48:50.207Z,13.20
2023-05-20T23:51:17.324Z,13.20
2023-05-20T23:53:44.472Z,13.20
2023-05-20T23:56:11.543Z,13.10
2023-05-20T23:58:38.512Z,13.10
